Tupungato, Argentina
Current Conditions -  °F | °C
As of 5:00 AM on Friday 24 Oct 2014 (Local Time) from SAME Reporting Station
Clear Clear  
Wind Chill: 24°   Ceiling: Unl
Heat Index: 24°   Visibility: 6mi
Dew Point: 13°   Wind: 10mph
Humidity: 50%   Direction: 180°S
Pressure: 29.97"   Gusts: NA
Location:  33.37°S, 69.13°W
Report Text: SAME 240800Z 18009KT CAVOK 24/13 Q1015
Loading
Personal Weather Stations






























Interactive Weather Map
Tropical Storm Tracking
New forecast layout! Learn more

10-Day Weather Forecast

Advertisements
Track Severe Weather on mobile